sensor_id;sensor_type;location;lat;lon;timestamp;pressure;altitude;pressure_sealevel;temperature;humidity
60437;BME280;46289;51.992;4.498;2024-03-25T00:00:18;100871.91;;;3.45;100.00
60437;BME280;46289;51.992;4.498;2024-03-25T00:02:19;100865.03;;;3.41;100.00
60437;BME280;46289;51.992;4.498;2024-03-25T00:04:23;100859.00;;;3.36;100.00
60437;BME280;46289;51.992;4.498;2024-03-25T00:06:24;100862.53;;;3.29;100.00
60437;BME280;46289;51.992;4.498;2024-03-25T00:08:25;100858.28;;;3.25;100.00
60437;BME280;46289;51.992;4.498;2024-03-25T00:10:26;100859.94;;;3.29;100.00
60437;BME280;46289;51.992;4.498;2024-03-25T00:12:27;100860.91;;;3.20;100.00
60437;BME280;46289;51.992;4.498;2024-03-25T00:14:28;100860.97;;;3.13;100.00
60437;BME280;46289;51.992;4.498;2024-03-25T00:16:30;100852.41;;;3.04;100.00
60437;BME280;46289;51.992;4.498;2024-03-25T00:18:31;100854.22;;;2.96;100.00
60437;BME280;46289;51.992;4.498;2024-03-25T00:20:35;100856.78;;;3.01;100.00
60437;BME280;46289;51.992;4.498;2024-03-25T00:22:36;100851.59;;;3.01;100.00
60437;BME280;46289;51.992;4.498;2024-03-25T00:24:37;100855.88;;;3.02;100.00
60437;BME280;46289;51.992;4.498;2024-03-25T00:26:38;100856.78;;;2.99;100.00
60437;BME280;46289;51.992;4.498;2024-03-25T00:28:40;100856.81;;;2.98;100.00
60437;BME280;46289;51.992;4.498;2024-03-25T00:30:41;100860.22;;;3.00;100.00
60437;BME280;46289;51.992;4.498;2024-03-25T00:32:42;100859.41;;;2.96;100.00
60437;BME280;46289;51.992;4.498;2024-03-25T00:34:43;100864.53;;;3.02;100.00
60437;BME280;46289;51.992;4.498;2024-03-25T00:36:47;100863.56;;;3.14;100.00
60437;BME280;46289;51.992;4.498;2024-03-25T00:38:49;100874.84;;;3.12;100.00
60437;BME280;46289;51.992;4.498;2024-03-25T00:40:50;100861.00;;;3.10;100.00
60437;BME280;46289;51.992;4.498;2024-03-25T00:42:52;100868.84;;;3.05;100.00
60437;BME280;46289;51.992;4.498;2024-03-25T00:44:53;100870.56;;;3.04;100.00
60437;BME280;46289;51.992;4.498;2024-03-25T00:46:54;100868.88;;;3.03;100.00
60437;BME280;46289;51.992;4.498;2024-03-25T00:48:56;100871.50;;;2.99;100.00
60437;BME280;46289;51.992;4.498;2024-03-25T00:50:57;100874.94;;;2.99;100.00
60437;BME280;46289;51.992;4.498;2024-03-25T00:53:00;100874.09;;;2.99;100.00
60437;BME280;46289;51.992;4.498;2024-03-25T00:55:02;100871.53;;;2.94;100.00
60437;BME280;46289;51.992;4.498;2024-03-25T00:57:04;100874.97;;;2.95;100.00
60437;BME280;46289;51.992;4.498;2024-03-25T00:59:05;100873.25;;;2.97;100.00
60437;BME280;46289;51.992;4.498;2024-03-25T01:01:06;100868.06;;;2.95;100.00
60437;BME280;46289;51.992;4.498;2024-03-25T01:03:10;100866.38;;;2.93;100.00
60437;BME280;46289;51.992;4.498;2024-03-25T01:05:11;100871.50;;;2.97;100.00
60437;BME280;46289;51.992;4.498;2024-03-25T01:07:13;100876.69;;;2.97;100.00
60437;BME280;46289;51.992;4.498;2024-03-25T01:09:16;100877.56;;;2.95;100.00
60437;BME280;46289;51.992;4.498;2024-03-25T01:11:19;100877.59;;;2.92;100.00
60437;BME280;46289;51.992;4.498;2024-03-25T01:13:20;100884.56;;;2.88;100.00
60437;BME280;46289;51.992;4.498;2024-03-25T01:15:21;100878.44;;;2.97;100.00
60437;BME280;46289;51.992;4.498;2024-03-25T01:17:22;100885.38;;;2.96;100.00
60437;BME280;46289;51.992;4.498;2024-03-25T01:19:24;100885.38;;;2.96;100.00
60437;BME280;46289;51.992;4.498;2024-03-25T01:21:25;100878.41;;;3.01;100.00
60437;BME280;46289;51.992;4.498;2024-03-25T01:23:26;100882.78;;;2.98;100.00
60437;BME280;46289;51.992;4.498;2024-03-25T01:25:30;100880.16;;;2.96;100.00
60437;BME280;46289;51.992;4.498;2024-03-25T01:27:31;100878.47;;;2.95;100.00
60437;BME280;46289;51.992;4.498;2024-03-25T01:29:32;100874.97;;;2.98;100.00
60437;BME280;46289;51.992;4.498;2024-03-25T01:31:33;100869.81;;;2.93;100.00
60437;BME280;46289;51.992;4.498;2024-03-25T01:33:35;100881.06;;;2.94;100.00
60437;BME280;46289;51.992;4.498;2024-03-25T01:35:36;100875.88;;;2.94;100.00
60437;BME280;46289;51.992;4.498;2024-03-25T01:37:37;100871.56;;;2.91;100.00
60437;BME280;46289;51.992;4.498;2024-03-25T01:39:38;100878.47;;;2.92;100.00
60437;BME280;46289;51.992;4.498;2024-03-25T01:41:42;100868.97;;;2.93;100.00
60437;BME280;46289;51.992;4.498;2024-03-25T01:43:43;100876.75;;;2.91;100.00
60437;BME280;46289;51.992;4.498;2024-03-25T01:45:44;100880.19;;;2.93;100.00
60437;BME280;46289;51.992;4.498;2024-03-25T01:47:46;100875.00;;;2.92;100.00
60437;BME280;46289;51.992;4.498;2024-03-25T01:49:47;100872.47;;;2.85;100.00
60437;BME280;46289;51.992;4.498;2024-03-25T01:51:49;100870.72;;;2.91;100.00
60437;BME280;46289;51.992;4.498;2024-03-25T01:53:52;100875.88;;;2.95;100.00
60437;BME280;46289;51.992;4.498;2024-03-25T01:55:54;100868.03;;;2.98;100.00
60437;BME280;46289;51.992;4.498;2024-03-25T01:57:59;100868.00;;;3.03;100.00
60437;BME280;46289;51.992;4.498;2024-03-25T02:00:00;100873.19;;;3.04;100.00
60437;BME280;46289;51.992;4.498;2024-03-25T02:02:02;100876.53;;;3.16;100.00
60437;BME280;46289;51.992;4.498;2024-03-25T02:04:03;100874.75;;;3.24;100.00
60437;BME280;46289;51.992;4.498;2024-03-25T02:06:09;100872.09;;;3.25;100.00
60437;BME280;46289;51.992;4.498;2024-03-25T02:08:13;100869.41;;;3.36;100.00
60437;BME280;46289;51.992;4.498;2024-03-25T02:10:15;100871.88;;;3.47;100.00
60437;BME280;46289;51.992;4.498;2024-03-25T02:12:19;100869.25;;;3.51;100.00
60437;BME280;46289;51.992;4.498;2024-03-25T02:14:24;100866.66;;;3.53;100.00
60437;BME280;46289;51.992;4.498;2024-03-25T02:16:25;100861.41;;;3.55;100.00
60437;BME280;46289;51.992;4.498;2024-03-25T02:18:26;100858.84;;;3.51;100.00
60437;BME280;46289;51.992;4.498;2024-03-25T02:20:27;100857.91;;;3.59;100.00
60437;BME280;46289;51.992;4.498;2024-03-25T02:22:29;100856.25;;;3.51;100.00
60437;BME280;46289;51.992;4.498;2024-03-25T02:24:31;100846.81;;;3.44;100.00
60437;BME280;46289;51.992;4.498;2024-03-25T02:26:36;100845.94;;;3.44;100.00
60437;BME280;46289;51.992;4.498;2024-03-25T02:28:37;100848.59;;;3.39;100.00
60437;BME280;46289;51.992;4.498;2024-03-25T02:30:38;100846.94;;;3.32;100.00
60437;BME280;46289;51.992;4.498;2024-03-25T02:32:40;100840.09;;;3.23;100.00
60437;BME280;46289;51.992;4.498;2024-03-25T02:34:46;100845.34;;;3.19;100.00
60437;BME280;46289;51.992;4.498;2024-03-25T02:36:48;100843.66;;;3.15;100.00
60437;BME280;46289;51.992;4.498;2024-03-25T02:38:49;100838.53;;;3.07;100.00
60437;BME280;46289;51.992;4.498;2024-03-25T02:40:50;100837.75;;;3.00;100.00
60437;BME280;46289;51.992;4.498;2024-03-25T02:42:54;100837.75;;;2.99;100.00
60437;BME280;46289;51.992;4.498;2024-03-25T02:44:56;100835.22;;;2.91;100.00
60437;BME280;46289;51.992;4.498;2024-03-25T02:46:58;100836.16;;;2.87;100.00
60437;BME280;46289;51.992;4.498;2024-03-25T02:48:59;100837.88;;;2.85;100.00
60437;BME280;46289;51.992;4.498;2024-03-25T02:51:00;100843.94;;;2.85;100.00
60437;BME280;46289;51.992;4.498;2024-03-25T02:53:01;100834.47;;;2.80;100.00
60437;BME280;46289;51.992;4.498;2024-03-25T02:55:03;100829.28;;;2.78;100.00
60437;BME280;46289;51.992;4.498;2024-03-25T02:57:04;100831.94;;;2.72;100.00
60437;BME280;46289;51.992;4.498;2024-03-25T02:59:11;100828.50;;;2.67;100.00
60437;BME280;46289;51.992;4.498;2024-03-25T03:01:12;100828.53;;;2.62;100.00
60437;BME280;46289;51.992;4.498;2024-03-25T03:03:13;100825.16;;;2.54;100.00
60437;BME280;46289;51.992;4.498;2024-03-25T03:05:16;100820.88;;;2.50;100.00
60437;BME280;46289;51.992;4.498;2024-03-25T03:07:17;100812.28;;;2.44;100.00
60437;BME280;46289;51.992;4.498;2024-03-25T03:09:18;100818.28;;;2.47;100.00
60437;BME280;46289;51.992;4.498;2024-03-25T03:11:19;100814.91;;;2.40;100.00
60437;BME280;46289;51.992;4.498;2024-03-25T03:13:20;100818.41;;;2.35;100.00
60437;BME280;46289;51.992;4.498;2024-03-25T03:15:24;100816.66;;;2.34;100.00
60437;BME280;46289;51.992;4.498;2024-03-25T03:17:25;100826.19;;;2.30;100.00
60437;BME280;46289;51.992;4.498;2024-03-25T03:19:27;100824.47;;;2.31;100.00
60437;BME280;46289;51.992;4.498;2024-03-25T03:21:28;100827.09;;;2.23;100.00
60437;BME280;46289;51.992;4.498;2024-03-25T03:23:29;100820.19;;;2.27;100.00
60437;BME280;46289;51.992;4.498;2024-03-25T03:25:30;100821.91;;;2.28;100.00
60437;BME280;46289;51.992;4.498;2024-03-25T03:27:31;100818.44;;;2.26;100.00
60437;BME280;46289;51.992;4.498;2024-03-25T03:29:33;100809.78;;;2.28;100.00
60437;BME280;46289;51.992;4.498;2024-03-25T03:31:37;100807.28;;;2.19;100.00
60437;BME280;46289;51.992;4.498;2024-03-25T03:33:38;100812.47;;;2.13;100.00
60437;BME280;46289;51.992;4.498;2024-03-25T03:35:39;100806.47;;;2.05;100.00
60437;BME280;46289;51.992;4.498;2024-03-25T03:37:40;100808.25;;;2.01;100.00
60437;BME280;46289;51.992;4.498;2024-03-25T03:39:41;100813.47;;;1.95;100.00
60437;BME280;46289;51.992;4.498;2024-03-25T03:41:42;100805.69;;;1.92;100.00
60437;BME280;46289;51.992;4.498;2024-03-25T03:43:44;100806.56;;;1.89;100.00
60437;BME280;46289;51.992;4.498;2024-03-25T03:45:45;100801.41;;;1.86;100.00
60437;BME280;46289;51.992;4.498;2024-03-25T03:47:49;100808.31;;;1.84;100.00
60437;BME280;46289;51.992;4.498;2024-03-25T03:49:50;100805.75;;;1.83;100.00
60437;BME280;46289;51.992;4.498;2024-03-25T03:51:51;100807.47;;;1.85;100.00
60437;BME280;46289;51.992;4.498;2024-03-25T03:53:53;100804.88;;;1.84;100.00
60437;BME280;46289;51.992;4.498;2024-03-25T03:55:54;100805.75;;;1.83;100.00
60437;BME280;46289;51.992;4.498;2024-03-25T03:57:55;100807.50;;;1.78;100.00
60437;BME280;46289;51.992;4.498;2024-03-25T03:59:56;100798.00;;;1.80;100.00
60437;BME280;46289;51.992;4.498;2024-03-25T04:01:59;100797.97;;;1.83;100.00
60437;BME280;46289;51.992;4.498;2024-03-25T04:04:03;100794.56;;;1.74;100.00
60437;BME280;46289;51.992;4.498;2024-03-25T04:06:08;100798.88;;;1.72;100.00
60437;BME280;46289;51.992;4.498;2024-03-25T04:08:09;100796.28;;;1.75;100.00
60437;BME280;46289;51.992;4.498;2024-03-25T04:10:10;100795.41;;;1.78;100.00
60437;BME280;46289;51.992;4.498;2024-03-25T04:12:12;100791.06;;;1.79;100.00
60437;BME280;46289;51.992;4.498;2024-03-25T04:14:13;100803.22;;;1.72;100.00
60437;BME280;46289;51.992;4.498;2024-03-25T04:16:14;100800.63;;;1.72;100.00
60437;BME280;46289;51.992;4.498;2024-03-25T04:18:15;100792.00;;;1.68;100.00
60437;BME280;46289;51.992;4.498;2024-03-25T04:20:19;100802.41;;;1.64;100.00
60437;BME280;46289;51.992;4.498;2024-03-25T04:22:20;100803.25;;;1.64;100.00
60437;BME280;46289;51.992;4.498;2024-03-25T04:24:21;100803.28;;;1.55;100.00
60437;BME280;46289;51.992;4.498;2024-03-25T04:26:23;100801.56;;;1.59;100.00
60437;BME280;46289;51.992;4.498;2024-03-25T04:28:24;100797.25;;;1.53;100.00
60437;BME280;46289;51.992;4.498;2024-03-25T04:30:25;100798.13;;;1.53;100.00
60437;BME280;46289;51.992;4.498;2024-03-25T04:32:27;100798.13;;;1.49;100.00
60437;BME280;46289;51.992;4.498;2024-03-25T04:34:28;100800.75;;;1.43;100.00
60437;BME280;46289;51.992;4.498;2024-03-25T04:36:32;100796.41;;;1.42;100.00
60437;BME280;46289;51.992;4.498;2024-03-25T04:38:35;100800.78;;;1.35;100.00
60437;BME280;46289;51.992;4.498;2024-03-25T04:40:37;100796.47;;;1.29;100.00
60437;BME280;46289;51.992;4.498;2024-03-25T04:42:38;100801.69;;;1.26;100.00
60437;BME280;46289;51.992;4.498;2024-03-25T04:44:39;100802.53;;;1.21;100.00
60437;BME280;46289;51.992;4.498;2024-03-25T04:46:40;100812.00;;;1.23;100.00
60437;BME280;46289;51.992;4.498;2024-03-25T04:48:41;100805.97;;;1.27;100.00
60437;BME280;46289;51.992;4.498;2024-03-25T04:50:43;100799.94;;;1.22;100.00
60437;BME280;46289;51.992;4.498;2024-03-25T04:52:46;100805.97;;;1.23;100.00
60437;BME280;46289;51.992;4.498;2024-03-25T04:54:48;100802.56;;;1.19;100.00
60437;BME280;46289;51.992;4.498;2024-03-25T04:56:49;100808.59;;;1.21;100.00
60437;BME280;46289;51.992;4.498;2024-03-25T04:58:50;100801.69;;;1.14;100.00
60437;BME280;46289;51.992;4.498;2024-03-25T05:00:52;100796.53;;;1.14;100.00
60437;BME280;46289;51.992;4.498;2024-03-25T05:02:53;100801.72;;;1.11;100.00
60437;BME280;46289;51.992;4.498;2024-03-25T05:04:54;100806.00;;;1.10;100.00
60437;BME280;46289;51.992;4.498;2024-03-25T05:06:55;100810.34;;;1.07;100.00
60437;BME280;46289;51.992;4.498;2024-03-25T05:08:59;100809.44;;;1.16;100.00
60437;BME280;46289;51.992;4.498;2024-03-25T05:11:00;100813.75;;;1.18;100.00
60437;BME280;46289;51.992;4.498;2024-03-25T05:13:01;100812.88;;;1.18;100.00
60437;BME280;46289;51.992;4.498;2024-03-25T05:15:02;100807.69;;;1.21;100.00
60437;BME280;46289;51.992;4.498;2024-03-25T05:17:07;100809.44;;;1.22;100.00
60437;BME280;46289;51.992;4.498;2024-03-25T05:19:09;100807.72;;;1.24;100.00
60437;BME280;46289;51.992;4.498;2024-03-25T05:21:10;100809.41;;;1.23;100.00
60437;BME280;46289;51.992;4.498;2024-03-25T05:23:11;100810.28;;;1.22;100.00
60437;BME280;46289;51.992;4.498;2024-03-25T05:25:15;100801.69;;;1.19;100.00
60437;BME280;46289;51.992;4.498;2024-03-25T05:27:16;100799.13;;;1.11;100.00
60437;BME280;46289;51.992;4.498;2024-03-25T05:29:17;100796.53;;;1.11;100.00
60437;BME280;46289;51.992;4.498;2024-03-25T05:31:19;100797.38;;;1.07;100.00
60437;BME280;46289;51.992;4.498;2024-03-25T05:33:20;100795.69;;;1.06;100.00
60437;BME280;46289;51.992;4.498;2024-03-25T05:35:21;100793.97;;;0.96;100.00
60437;BME280;46289;51.992;4.498;2024-03-25T05:37:23;100793.97;;;0.91;100.00
60437;BME280;46289;51.992;4.498;2024-03-25T05:39:24;100794.81;;;0.92;100.00
60437;BME280;46289;51.992;4.498;2024-03-25T05:41:28;100787.06;;;0.99;100.00
60437;BME280;46289;51.992;4.498;2024-03-25T05:43:29;100788.78;;;1.06;100.00
60437;BME280;46289;51.992;4.498;2024-03-25T05:45:30;100784.44;;;1.12;100.00
60437;BME280;46289;51.992;4.498;2024-03-25T05:47:31;100784.47;;;1.05;100.00
60437;BME280;46289;51.992;4.498;2024-03-25T05:49:32;100785.34;;;1.06;100.00
60437;BME280;46289;51.992;4.498;2024-03-25T05:51:33;100775.84;;;1.08;100.00
60437;BME280;46289;51.992;4.498;2024-03-25T05:53:35;100781.00;;;1.05;100.00
60437;BME280;46289;51.992;4.498;2024-03-25T05:55:36;100781.84;;;1.12;100.00
60437;BME280;46289;51.992;4.498;2024-03-25T05:57:40;100781.00;;;1.09;100.00
60437;BME280;46289;51.992;4.498;2024-03-25T05:59:41;100781.84;;;1.12;100.00
60437;BME280;46289;51.992;4.498;2024-03-25T06:01:42;100781.84;;;1.12;100.00
60437;BME280;46289;51.992;4.498;2024-03-25T06:03:43;100774.97;;;1.14;100.00
60437;BME280;46289;51.992;4.498;2024-03-25T06:05:45;100779.25;;;1.19;100.00
60437;BME280;46289;51.992;4.498;2024-03-25T06:07:46;100776.59;;;1.31;100.00
60437;BME280;46289;51.992;4.498;2024-03-25T06:09:47;100780.91;;;1.36;100.00
60437;BME280;46289;51.992;4.498;2024-03-25T06:11:48;100786.94;;;1.44;100.00
60437;BME280;46289;51.992;4.498;2024-03-25T06:13:52;100778.22;;;1.57;100.00
60437;BME280;46289;51.992;4.498;2024-03-25T06:15:53;100775.56;;;1.74;100.00
60437;BME280;46289;51.992;4.498;2024-03-25T06:17:54;100770.28;;;1.95;100.00
60437;BME280;46289;51.992;4.498;2024-03-25T06:19:55;100765.78;;;2.17;100.00
60437;BME280;46289;51.992;4.498;2024-03-25T06:21:57;100762.22;;;2.32;100.00
60437;BME280;46289;51.992;4.498;2024-03-25T06:23:58;100766.44;;;2.44;100.00
60437;BME280;46289;51.992;4.498;2024-03-25T06:25:59;100765.53;;;2.53;100.00
60437;BME280;46289;51.992;4.498;2024-03-25T06:28:00;100761.09;;;2.62;100.00
60437;BME280;46289;51.992;4.498;2024-03-25T06:30:05;100766.22;;;2.70;100.00
60437;BME280;46289;51.992;4.498;2024-03-25T06:32:23;100760.09;;;2.76;100.00
60437;BME280;46289;51.992;4.498;2024-03-25T06:34:39;100760.97;;;2.78;100.00
60437;BME280;46289;51.992;4.498;2024-03-25T06:36:40;100761.84;;;2.75;100.00
60437;BME280;46289;51.992;4.498;2024-03-25T06:38:42;100759.28;;;2.72;100.00
60437;BME280;46289;51.992;4.498;2024-03-25T06:40:45;100764.47;;;2.71;100.00
60437;BME280;46289;51.992;4.498;2024-03-25T06:42:46;100754.94;;;2.71;100.00
60437;BME280;46289;51.992;4.498;2024-03-25T06:44:47;100755.81;;;2.75;100.00
60437;BME280;46289;51.992;4.498;2024-03-25T06:46:51;100761.81;;;2.78;100.00
60437;BME280;46289;51.992;4.498;2024-03-25T06:48:52;100760.84;;;2.90;100.00
60437;BME280;46289;51.992;4.498;2024-03-25T06:50:54;100764.22;;;2.98;100.00
60437;BME280;46289;51.992;4.498;2024-03-25T06:52:55;100761.47;;;3.14;100.00
60437;BME280;46289;51.992;4.498;2024-03-25T06:54:56;100759.59;;;3.23;100.00
60437;BME280;46289;51.992;4.498;2024-03-25T06:56:57;100756.88;;;3.34;100.00
60437;BME280;46289;51.992;4.498;2024-03-25T06:58:59;100758.44;;;3.47;100.00
60437;BME280;46289;51.992;4.498;2024-03-25T07:01:04;100768.81;;;3.50;100.00
60437;BME280;46289;51.992;4.498;2024-03-25T07:03:11;100771.31;;;3.58;100.00
60437;BME280;46289;51.992;4.498;2024-03-25T07:05:12;100759.84;;;3.73;100.00
60437;BME280;46289;51.992;4.498;2024-03-25T07:07:13;100758.78;;;3.88;100.00
60437;BME280;46289;51.992;4.498;2024-03-25T07:09:14;100756.03;;;3.99;100.00
60437;BME280;46289;51.992;4.498;2024-03-25T07:11:15;100753.03;;;4.23;100.00
60437;BME280;46289;51.992;4.498;2024-03-25T07:13:17;100750.19;;;4.40;100.00
60437;BME280;46289;51.992;4.498;2024-03-25T07:15:18;100751.59;;;4.58;100.00
60437;BME280;46289;51.992;4.498;2024-03-25T07:17:19;100750.47;;;4.73;100.00
60437;BME280;46289;51.992;4.498;2024-03-25T07:19:23;100751.09;;;4.87;100.00
60437;BME280;46289;51.992;4.498;2024-03-25T07:21:24;100750.75;;;5.05;100.00
60437;BME280;46289;51.992;4.498;2024-03-25T07:23:25;100752.25;;;5.17;100.00
60437;BME280;46289;51.992;4.498;2024-03-25T07:25:26;100751.59;;;5.49;100.00
60437;BME280;46289;51.992;4.498;2024-03-25T07:27:28;100752.69;;;5.80;100.00
60437;BME280;46289;51.992;4.498;2024-03-25T07:29:29;100745.16;;;6.06;100.00
60437;BME280;46289;51.992;4.498;2024-03-25T07:31:30;100748.03;;;6.31;100.00
60437;BME280;46289;51.992;4.498;2024-03-25T07:33:35;100743.88;;;6.58;100.00
60437;BME280;46289;51.992;4.498;2024-03-25T07:35:38;100745.09;;;6.79;100.00
60437;BME280;46289;51.992;4.498;2024-03-25T07:37:40;100753.09;;;7.04;100.00
60437;BME280;46289;51.992;4.498;2024-03-25T07:39:41;100748.31;;;7.20;100.00
60437;BME280;46289;51.992;4.498;2024-03-25T07:41:42;100753.13;;;7.36;100.00
60437;BME280;46289;51.992;4.498;2024-03-25T07:43:43;100746.75;;;7.44;100.00
60437;BME280;46289;51.992;4.498;2024-03-25T07:45:44;100752.03;;;7.43;100.00
60437;BME280;46289;51.992;4.498;2024-03-25T07:47:45;100753.44;;;7.55;100.00
60437;BME280;46289;51.992;4.498;2024-03-25T07:49:46;100755.31;;;7.50;100.00
60437;BME280;46289;51.992;4.498;2024-03-25T07:51:50;100757.25;;;7.73;100.00
60437;BME280;46289;51.992;4.498;2024-03-25T07:53:51;100752.28;;;7.93;100.00
60437;BME280;46289;51.992;4.498;2024-03-25T07:55:52;100758.44;;;8.19;100.00
60437;BME280;46289;51.992;4.498;2024-03-25T07:57:53;100761.06;;;8.19;100.00
60437;BME280;46289;51.992;4.498;2024-03-25T07:59:54;100764.59;;;8.46;100.00
60437;BME280;46289;51.992;4.498;2024-03-25T08:01:55;100757.81;;;8.40;100.00
60437;BME280;46289;51.992;4.498;2024-03-25T08:03:57;100757.94;;;8.62;100.00
60437;BME280;46289;51.992;4.498;2024-03-25T08:05:58;100761.22;;;8.94;100.00
60437;BME280;46289;51.992;4.498;2024-03-25T08:08:02;100763.38;;;8.83;100.00
60437;BME280;46289;51.992;4.498;2024-03-25T08:10:06;100755.00;;;8.96;100.00
60437;BME280;46289;51.992;4.498;2024-03-25T08:12:07;100762.19;;;9.16;100.00
60437;BME280;46289;51.992;4.498;2024-03-25T08:14:09;100759.38;;;9.21;100.00
60437;BME280;46289;51.992;4.498;2024-03-25T08:16:10;100760.19;;;9.23;100.00
60437;BME280;46289;51.992;4.498;2024-03-25T08:18:12;100761.78;;;9.27;100.00
60437;BME280;46289;51.992;4.498;2024-03-25T08:20:13;100763.53;;;9.27;100.00
60437;BME280;46289;51.992;4.498;2024-03-25T08:22:14;100768.34;;;9.39;100.00
60437;BME280;46289;51.992;4.498;2024-03-25T08:24:17;100764.84;;;9.15;100.00
60437;BME280;46289;51.992;4.498;2024-03-25T08:26:19;100767.50;;;9.13;100.00
60437;BME280;46289;51.992;4.498;2024-03-25T08:28:20;100768.03;;;9.23;100.00
60437;BME280;46289;51.992;4.498;2024-03-25T08:30:21;100758.00;;;9.34;100.00
60437;BME280;46289;51.992;4.498;2024-03-25T08:32:22;100748.84;;;9.70;100.00
60437;BME280;46289;51.992;4.498;2024-03-25T08:34:23;100745.56;;;9.86;100.00
60437;BME280;46289;51.992;4.498;2024-03-25T08:36:25;100744.03;;;10.25;100.00
60437;BME280;46289;51.992;4.498;2024-03-25T08:38:26;100753.84;;;9.76;100.00
60437;BME280;46289;51.992;4.498;2024-03-25T08:40:29;100747.72;;;9.53;100.00
60437;BME280;46289;51.992;4.498;2024-03-25T08:42:30;100741.38;;;9.59;100.00
60437;BME280;46289;51.992;4.498;2024-03-25T08:44:34;100742.66;;;9.71;100.00
60437;BME280;46289;51.992;4.498;2024-03-25T08:46:35;100735.00;;;9.88;100.00
60437;BME280;46289;51.992;4.498;2024-03-25T08:48:36;100735.84;;;10.10;100.00
60437;BME280;46289;51.992;4.498;2024-03-25T08:50:38;100736.47;;;10.17;100.00
60437;BME280;46289;51.992;4.498;2024-03-25T08:52:39;100737.22;;;10.43;100.00
60437;BME280;46289;51.992;4.498;2024-03-25T08:54:40;100727.34;;;10.68;100.00
60437;BME280;46289;51.992;4.498;2024-03-25T08:56:44;100727.31;;;10.70;100.00
60437;BME280;46289;51.992;4.498;2024-03-25T08:58:45;100728.16;;;10.70;100.00
60437;BME280;46289;51.992;4.498;2024-03-25T09:00:47;100728.16;;;10.70;100.00
60437;BME280;46289;51.992;4.498;2024-03-25T09:02:48;100719.94;;;10.58;100.00
60437;BME280;46289;51.992;4.498;2024-03-25T09:04:49;100714.00;;;9.88;100.00
60437;BME280;46289;51.992;4.498;2024-03-25T09:06:50;100714.84;;;10.10;100.00
60437;BME280;46289;51.992;4.498;2024-03-25T09:08:52;100713.44;;;10.46;100.00
60437;BME280;46289;51.992;4.498;2024-03-25T09:11:10;100711.53;;;10.90;100.00
60437;BME280;46289;51.992;4.498;2024-03-25T09:13:14;100728.88;;;10.94;100.00
60437;BME280;46289;51.992;4.498;2024-03-25T09:15:15;100722.50;;;10.59;100.00
60437;BME280;46289;51.992;4.498;2024-03-25T09:17:17;100717.50;;;10.53;100.00
60437;BME280;46289;51.992;4.498;2024-03-25T09:19:18;100718.38;;;10.31;100.00
60437;BME280;46289;51.992;4.498;2024-03-25T09:21:19;100713.78;;;10.59;100.00
60437;BME280;46289;51.992;4.498;2024-03-25T09:23:20;100713.22;;;10.50;100.00
60437;BME280;46289;51.992;4.498;2024-03-25T09:25:23;100710.75;;;10.68;100.00
60437;BME280;46289;51.992;4.498;2024-03-25T09:27:24;100714.81;;;10.54;100.00
60437;BME280;46289;51.992;4.498;2024-03-25T09:29:28;100709.97;;;10.45;100.00
60437;BME280;46289;51.992;4.498;2024-03-25T09:31:29;100711.00;;;10.62;100.00
60437;BME280;46289;51.992;4.498;2024-03-25T09:33:30;100704.94;;;10.39;100.00
60437;BME280;46289;51.992;4.498;2024-03-25T09:35:31;100700.81;;;10.11;100.00
60437;BME280;46289;51.992;4.498;2024-03-25T09:37:33;100700.81;;;10.33;100.00
60437;BME280;46289;51.992;4.498;2024-03-25T09:39:34;100694.44;;;10.80;100.00
60437;BME280;46289;51.992;4.498;2024-03-25T09:41:35;100696.66;;;10.69;100.00
60437;BME280;46289;51.992;4.498;2024-03-25T09:43:43;100696.16;;;10.40;100.00
60437;BME280;46289;51.992;4.498;2024-03-25T09:45:47;100693.41;;;10.43;100.00
60437;BME280;46289;51.992;4.498;2024-03-25T09:47:49;100697.66;;;10.03;100.00
60437;BME280;46289;51.992;4.498;2024-03-25T09:49:51;100681.16;;;10.00;100.00
60437;BME280;46289;51.992;4.498;2024-03-25T09:51:55;100686.75;;;10.13;100.00
60437;BME280;46289;51.992;4.498;2024-03-25T09:53:56;100688.59;;;10.10;100.00
60437;BME280;46289;51.992;4.498;2024-03-25T09:55:57;100679.41;;;10.21;100.00
60437;BME280;46289;51.992;4.498;2024-03-25T09:57:59;100685.28;;;10.05;100.00
60437;BME280;46289;51.992;4.498;2024-03-25T10:00:00;100679.81;;;10.11;100.00
60437;BME280;46289;51.992;4.498;2024-03-25T10:02:05;100673.41;;;10.39;100.00
60437;BME280;46289;51.992;4.498;2024-03-25T10:04:06;100674.28;;;10.60;100.00
60437;BME280;46289;51.992;4.498;2024-03-25T10:06:09;100670.16;;;10.94;100.00
60437;BME280;46289;51.992;4.498;2024-03-25T10:08:10;100677.19;;;11.14;100.00
60437;BME280;46289;51.992;4.498;2024-03-25T10:10:12;100677.47;;;11.46;100.00
60437;BME280;46289;51.992;4.498;2024-03-25T10:12:13;100674.22;;;11.77;100.00
60437;BME280;46289;51.992;4.498;2024-03-25T10:14:15;100667.34;;;11.55;100.00
60437;BME280;46289;51.992;4.498;2024-03-25T10:16:16;100670.97;;;11.91;100.00
60437;BME280;46289;51.992;4.498;2024-03-25T10:18:20;100668.03;;;11.78;100.00
60437;BME280;46289;51.992;4.498;2024-03-25T10:20:21;100669.88;;;11.76;100.00
60437;BME280;46289;51.992;4.498;2024-03-25T10:22:23;100665.84;;;12.05;100.00
60437;BME280;46289;51.992;4.498;2024-03-25T10:24:24;100663.69;;;12.13;100.00
60437;BME280;46289;51.992;4.498;2024-03-25T10:26:26;100657.50;;;11.97;100.00
60437;BME280;46289;51.992;4.498;2024-03-25T10:28:28;100652.25;;;12.14;100.00
60437;BME280;46289;51.992;4.498;2024-03-25T10:30:29;100659.59;;;12.07;100.00
60437;BME280;46289;51.992;4.498;2024-03-25T10:32:30;100650.06;;;12.40;100.00
60437;BME280;46289;51.992;4.498;2024-03-25T10:34:34;100653.09;;;12.49;100.00